createdAt,value
2018-09-11T00:01:37.067Z,0.00
2018-09-11T00:02:37.088Z,0.00
2018-09-11T00:04:35.532Z,0.00
2018-09-11T00:05:33.005Z,0.00
2018-09-11T00:07:30.322Z,0.00
2018-09-11T00:08:29.333Z,0.00
2018-09-11T00:10:25.912Z,0.00
2018-09-11T00:11:25.410Z,0.00
2018-09-11T00:13:20.862Z,0.00
2018-09-11T00:14:20.856Z,0.00
2018-09-11T00:16:16.803Z,0.00
2018-09-11T00:17:17.328Z,0.00
2018-09-11T00:19:11.252Z,0.00
2018-09-11T00:20:11.236Z,0.00
2018-09-11T00:22:07.211Z,0.00
2018-09-11T00:23:07.214Z,0.00
2018-09-11T00:25:05.137Z,0.00
2018-09-11T00:26:05.728Z,0.00
2018-09-11T00:28:01.623Z,0.00
2018-09-11T00:29:02.087Z,0.00
2018-09-11T00:30:57.573Z,0.00
2018-09-11T00:31:57.057Z,0.00
2018-09-11T00:33:53.486Z,0.00
2018-09-11T00:34:52.980Z,0.00
2018-09-11T00:36:48.930Z,0.00
2018-09-11T00:37:48.929Z,0.00
2018-09-11T00:39:45.383Z,0.00
2018-09-11T00:40:44.876Z,0.00
2018-09-11T00:42:41.348Z,0.00
2018-09-11T00:43:41.349Z,0.00
2018-09-11T00:45:36.784Z,0.00
2018-09-11T00:46:36.791Z,0.00
2018-09-11T00:48:31.222Z,0.00
2018-09-11T00:49:31.235Z,0.00
2018-09-11T00:51:26.195Z,0.00
2018-09-11T00:52:27.317Z,0.00
2018-09-11T00:54:21.618Z,0.00
2018-09-11T00:55:23.123Z,0.00
2018-09-11T00:57:18.054Z,0.00
2018-09-11T00:58:17.538Z,0.00
2018-09-11T01:00:14.494Z,0.00
2018-09-11T01:01:14.430Z,0.00
2018-09-11T01:03:10.041Z,0.00
2018-09-11T01:04:09.429Z,0.00
2018-09-11T01:06:05.373Z,0.00
2018-09-11T01:07:05.375Z,0.00
2018-09-11T01:08:59.862Z,0.00
2018-09-11T01:09:59.945Z,0.00
2018-09-11T01:11:55.760Z,0.00
2018-09-11T01:12:55.752Z,0.00
2018-09-11T01:14:52.704Z,0.00
2018-09-11T01:15:52.241Z,0.00
2018-09-11T01:17:47.653Z,0.00
2018-09-11T01:18:48.183Z,0.00
2018-09-11T01:20:43.638Z,0.00
2018-09-11T01:21:44.126Z,0.00
2018-09-11T01:23:39.540Z,0.00
2018-09-11T01:24:39.524Z,0.00
2018-09-11T01:26:35.481Z,0.00
2018-09-11T01:27:35.497Z,0.00
2018-09-11T01:29:34.444Z,0.00
2018-09-11T01:30:31.599Z,0.00
2018-09-11T01:32:27.547Z,0.00
2018-09-11T01:33:27.549Z,0.00
2018-09-11T01:35:24.038Z,0.00
2018-09-11T01:36:24.022Z,0.00
2018-09-11T01:38:19.462Z,0.00
2018-09-11T01:39:19.463Z,0.00
2018-09-11T01:41:15.433Z,0.00
2018-09-11T01:42:15.364Z,0.00
2018-09-11T01:44:11.331Z,0.00
2018-09-11T01:45:11.825Z,0.00
2018-09-11T01:47:19.296Z,0.00
2018-09-11T01:48:18.925Z,0.00
2018-09-11T01:50:15.387Z,0.00
2018-09-11T01:51:14.882Z,0.00
2018-09-11T01:53:14.359Z,0.00
2018-09-11T01:54:13.824Z,0.00
2018-09-11T01:56:09.737Z,0.00
2018-09-11T01:57:09.158Z,0.00
2018-09-11T02:00:40.468Z,0.00
2018-09-11T02:01:40.391Z,0.00
2018-09-11T02:03:36.372Z,0.00
2018-09-11T02:04:37.111Z,0.00
2018-09-11T02:06:32.807Z,0.00
2018-09-11T02:07:32.276Z,0.00
2018-09-11T02:09:29.233Z,0.00
2018-09-11T02:10:28.729Z,0.00
2018-09-11T02:12:24.157Z,0.00
2018-09-11T02:13:24.169Z,0.00
2018-09-11T02:15:21.627Z,0.00
2018-09-11T02:16:20.167Z,0.00
2018-09-11T02:18:16.101Z,0.00
2018-09-11T02:19:16.112Z,0.00
2018-09-11T02:21:12.029Z,0.00
2018-09-11T02:22:12.021Z,0.00
2018-09-11T02:24:08.491Z,0.00
2018-09-11T02:25:07.959Z,0.00
2018-09-11T02:27:04.845Z,0.00
2018-09-11T02:28:03.904Z,0.00
2018-09-11T02:29:59.864Z,0.00
2018-09-11T02:31:00.365Z,0.00
2018-09-11T02:32:56.082Z,0.00
2018-09-11T02:33:55.812Z,0.00
2018-09-11T02:35:51.837Z,0.00
2018-09-11T02:36:51.764Z,0.00
2018-09-11T02:38:48.218Z,0.00
2018-09-11T02:39:47.712Z,0.00
2018-09-11T02:41:43.689Z,0.00
2018-09-11T02:42:43.673Z,0.00
2018-09-11T02:44:39.613Z,0.00
2018-09-11T02:45:39.621Z,0.00
2018-09-11T02:47:36.593Z,0.00
2018-09-11T02:48:35.562Z,0.00
2018-09-11T02:50:44.538Z,0.00
2018-09-11T02:51:44.046Z,0.00
2018-09-11T02:53:37.574Z,0.00
2018-09-11T02:54:38.117Z,0.00
2018-09-11T02:56:33.550Z,0.00
2018-09-11T02:57:34.020Z,0.00
2018-09-11T02:59:29.442Z,0.00
2018-09-11T03:00:29.449Z,0.00
2018-09-11T03:02:25.417Z,0.00
2018-09-11T03:03:25.405Z,0.00
2018-09-11T03:05:21.634Z,0.00
2018-09-11T03:06:21.653Z,0.00
2018-09-11T03:08:17.624Z,0.00
2018-09-11T03:09:17.585Z,0.00
2018-09-11T03:11:13.510Z,0.00
2018-09-11T03:12:13.502Z,0.00
2018-09-11T03:14:09.472Z,0.00
2018-09-11T03:15:09.459Z,0.00
2018-09-11T03:17:07.395Z,0.00
2018-09-11T03:18:05.393Z,0.00
2018-09-11T03:20:00.346Z,0.00
2018-09-11T03:20:59.826Z,0.00
2018-09-11T03:22:55.771Z,0.00
2018-09-11T03:23:55.763Z,0.00
2018-09-11T03:25:52.719Z,0.00
2018-09-11T03:26:51.705Z,0.00
2018-09-11T03:28:47.651Z,0.00
2018-09-11T03:29:47.650Z,0.00
2018-09-11T03:31:43.588Z,0.00
2018-09-11T03:32:43.610Z,0.00
2018-09-11T03:34:39.566Z,0.00
2018-09-11T03:35:40.975Z,0.00
2018-09-11T03:37:35.512Z,0.00
2018-09-11T03:38:35.513Z,0.00
2018-09-11T03:40:31.964Z,0.00
2018-09-11T03:41:31.444Z,0.00
2018-09-11T03:43:27.394Z,0.00
2018-09-11T03:44:27.394Z,0.00
2018-09-11T03:46:23.356Z,0.00
2018-09-11T03:47:23.325Z,0.00
2018-09-11T03:49:19.284Z,0.00
2018-09-11T03:50:19.270Z,0.00
2018-09-11T03:52:15.229Z,0.00
2018-09-11T03:53:15.217Z,0.00
2018-09-11T03:55:11.185Z,0.00
2018-09-11T03:56:11.677Z,0.00
2018-09-11T03:58:07.124Z,0.00
2018-09-11T03:59:07.139Z,0.00
2018-09-11T04:01:04.064Z,0.00
2018-09-11T04:02:03.568Z,0.00
2018-09-11T04:03:59.970Z,0.00
2018-09-11T04:04:59.954Z,0.00
2018-09-11T04:06:55.224Z,0.00
2018-09-11T04:07:55.225Z,0.00
2018-09-11T04:09:51.183Z,0.00
2018-09-11T04:10:51.689Z,0.00
2018-09-11T04:12:47.623Z,0.00
2018-09-11T04:13:47.109Z,0.00
2018-09-11T04:15:44.056Z,0.00
2018-09-11T04:16:43.055Z,0.00
2018-09-11T04:18:40.504Z,0.00
2018-09-11T04:19:38.995Z,0.00
2018-09-11T04:21:35.374Z,0.00
2018-09-11T04:22:33.605Z,0.00
2018-09-11T04:24:29.570Z,0.00
2018-09-11T04:25:29.627Z,0.00
2018-09-11T04:27:25.511Z,0.00
2018-09-11T04:28:25.490Z,0.00
2018-09-11T04:30:22.439Z,0.00
2018-09-11T04:31:21.938Z,0.00
2018-09-11T04:33:17.378Z,0.00
2018-09-11T04:34:17.384Z,0.00
2018-09-11T04:36:13.366Z,0.00
2018-09-11T04:37:13.325Z,0.00
2018-09-11T04:39:10.274Z,0.00
2018-09-11T04:40:09.249Z,0.00
2018-09-11T04:42:05.197Z,0.00
2018-09-11T04:44:21.126Z,0.00
2018-09-11T04:45:21.146Z,0.00
2018-09-11T04:47:18.600Z,0.00
2018-09-11T04:48:17.079Z,0.00
2018-09-11T04:50:13.029Z,0.00
2018-09-11T04:51:13.031Z,0.00
2018-09-11T04:53:09.488Z,0.00
2018-09-11T04:54:09.492Z,0.00
2018-09-11T04:56:04.942Z,0.00
2018-09-11T04:57:05.426Z,0.00
2018-09-11T04:59:01.394Z,0.00
2018-09-11T05:00:00.879Z,0.00
2018-09-11T05:01:57.925Z,0.00
2018-09-11T05:02:56.816Z,0.00
2018-09-11T05:04:52.771Z,5.63
2018-09-11T05:05:53.259Z,5.63
2018-09-11T05:07:49.196Z,5.63
2018-09-11T05:08:48.666Z,5.63
2018-09-11T05:10:44.688Z,5.63
2018-09-11T05:11:44.705Z,5.63
2018-09-11T05:13:38.674Z,11.25
2018-09-11T05:14:38.163Z,11.25
2018-09-11T05:16:34.146Z,11.25
2018-09-11T05:17:34.626Z,16.88
2018-09-11T05:19:30.147Z,16.88
2018-09-11T05:20:30.046Z,16.88
2018-09-11T05:22:26.492Z,22.50
2018-09-11T05:23:25.981Z,22.50
2018-09-11T05:25:22.488Z,22.50
2018-09-11T05:26:21.927Z,22.50
2018-09-11T05:28:21.876Z,28.13
2018-09-11T05:29:22.889Z,28.13
2018-09-11T05:31:17.369Z,33.75
2018-09-11T05:32:16.813Z,33.75
2018-09-11T05:34:12.765Z,33.75
2018-09-11T05:35:12.750Z,33.75
2018-09-11T05:37:08.716Z,33.75
2018-09-11T05:38:08.713Z,33.75
2018-09-11T05:40:04.301Z,33.75
2018-09-11T05:41:04.298Z,33.75
2018-09-11T05:43:00.744Z,39.38
2018-09-11T05:44:00.251Z,39.38
2018-09-11T05:45:56.184Z,45.00
2018-09-11T05:46:56.172Z,45.00
2018-09-11T05:48:52.659Z,50.63
2018-09-11T05:49:53.153Z,50.63
2018-09-11T05:51:48.603Z,50.63
2018-09-11T05:52:48.119Z,50.63
2018-09-11T05:54:44.032Z,50.63
2018-09-11T05:55:44.031Z,50.63
2018-09-11T05:57:39.967Z,56.25
2018-09-11T05:58:39.988Z,56.25
2018-09-11T06:00:36.434Z,56.25
2018-09-11T06:01:35.913Z,56.25
2018-09-11T06:03:31.964Z,56.25
2018-09-11T06:04:32.041Z,56.25
2018-09-11T06:06:27.889Z,61.88
2018-09-11T06:09:23.877Z,67.50
2018-09-11T06:10:24.343Z,67.50
2018-09-11T06:12:19.779Z,73.13
2018-09-11T06:13:19.785Z,78.75
2018-09-11T06:15:15.238Z,78.75
2018-09-11T06:16:14.775Z,78.75
2018-09-11T06:18:10.186Z,78.75
2018-09-11T06:19:09.665Z,78.75
2018-09-11T06:21:05.656Z,73.13
2018-09-11T06:22:05.152Z,73.13
2018-09-11T06:24:00.653Z,67.50
2018-09-11T06:26:21.609Z,67.50
2018-09-11T06:28:34.864Z,67.50
2018-09-11T06:29:34.342Z,67.50
2018-09-11T06:31:28.838Z,78.75
2018-09-11T06:32:28.765Z,78.75
2018-09-11T06:34:24.207Z,73.13
2018-09-11T06:35:23.235Z,84.38
2018-09-11T06:37:17.154Z,90.00
2018-09-11T06:38:16.643Z,84.38
2018-09-11T06:40:11.609Z,84.38
2018-09-11T06:41:11.631Z,84.38
2018-09-11T06:43:09.168Z,90.00
2018-09-11T06:44:09.182Z,95.63
2018-09-11T06:46:05.657Z,101.25
2018-09-11T06:47:05.220Z,101.25
2018-09-11T06:49:00.633Z,106.88
2018-09-11T06:50:00.136Z,112.50
2018-09-11T06:51:55.569Z,112.50
2018-09-11T06:52:55.560Z,106.88
2018-09-11T06:54:50.082Z,106.88
2018-09-11T06:55:50.031Z,101.25
2018-09-11T06:57:45.966Z,106.88
2018-09-11T06:58:44.445Z,112.50
2018-09-11T07:00:38.962Z,123.75
2018-09-11T07:01:38.882Z,135.00
2018-09-11T07:03:35.329Z,135.00
2018-09-11T07:04:34.811Z,135.00
2018-09-11T07:06:28.264Z,135.00
2018-09-11T07:07:28.245Z,135.00
2018-09-11T07:09:24.225Z,129.38
2018-09-11T07:10:24.203Z,129.38
2018-09-11T07:12:19.153Z,129.38
2018-09-11T07:13:19.165Z,123.75
2018-09-11T07:15:13.606Z,112.50
2018-09-11T07:16:13.077Z,118.13
2018-09-11T07:18:09.567Z,123.75
2018-09-11T07:19:09.020Z,123.75
2018-09-11T07:21:04.532Z,129.38
2018-09-11T07:22:03.433Z,123.75
2018-09-11T07:23:59.371Z,123.75
2018-09-11T07:24:59.379Z,123.75
2018-09-11T07:26:55.343Z,129.38
2018-09-11T07:27:55.340Z,129.38
2018-09-11T07:29:51.794Z,129.38
2018-09-11T07:30:51.281Z,129.38
2018-09-11T07:32:45.724Z,123.75
2018-09-11T07:33:45.730Z,123.75
2018-09-11T07:35:40.721Z,123.75
2018-09-11T07:36:40.163Z,123.75
2018-09-11T07:38:36.160Z,118.13
2018-09-11T07:39:36.114Z,118.13
2018-09-11T07:41:33.070Z,112.50
2018-09-11T07:42:32.564Z,112.50
2018-09-11T07:44:26.485Z,118.13
2018-09-11T07:45:26.530Z,118.13
2018-09-11T07:47:20.969Z,112.50
2018-09-11T07:48:21.441Z,112.50
2018-09-11T07:50:16.396Z,106.88
2018-09-11T07:51:15.414Z,95.63
2018-09-11T07:53:11.369Z,90.00
2018-09-11T07:54:11.374Z,84.38
2018-09-11T07:56:09.758Z,95.63
2018-09-11T07:57:07.823Z,95.63
2018-09-11T07:59:03.800Z,101.25
2018-09-11T08:00:03.296Z,106.88
2018-09-11T08:01:59.263Z,101.25
2018-09-11T08:02:59.262Z,106.88
2018-09-11T08:04:55.205Z,106.88
2018-09-11T08:05:55.194Z,101.25
2018-09-11T08:07:49.656Z,106.88
2018-09-11T08:08:49.639Z,112.50
2018-09-11T08:10:46.085Z,112.50
2018-09-11T08:11:45.572Z,112.50
2018-09-11T08:13:41.504Z,106.88
2018-09-11T08:14:41.491Z,112.50
2018-09-11T08:16:37.948Z,112.50
2018-09-11T08:17:37.445Z,112.50
2018-09-11T08:19:33.470Z,112.50
2018-09-11T08:20:33.451Z,112.50
2018-09-11T08:22:29.931Z,112.50
2018-09-11T08:23:29.917Z,112.50
2018-09-11T08:25:25.874Z,112.50
2018-09-11T08:26:25.388Z,112.50
2018-09-11T08:28:20.318Z,112.50
2018-09-11T08:29:19.869Z,112.50
2018-09-11T08:31:17.296Z,106.88
2018-09-11T08:32:15.740Z,106.88
2018-09-11T08:34:11.705Z,101.25
2018-09-11T08:35:13.196Z,101.25
2018-09-11T08:37:08.153Z,106.88
2018-09-11T08:38:07.635Z,101.25
2018-09-11T08:40:04.528Z,106.88
2018-09-11T08:41:04.157Z,101.25
2018-09-11T08:43:00.554Z,95.63
2018-09-11T08:44:00.049Z,101.25
2018-09-11T08:45:55.519Z,140.63
2018-09-11T08:46:55.484Z,146.25
2018-09-11T08:48:51.968Z,146.25
2018-09-11T08:49:51.425Z,191.25
2018-09-11T08:51:45.875Z,146.25
2018-09-11T08:52:45.937Z,163.13
2018-09-11T08:54:40.310Z,135.00
2018-09-11T08:55:40.300Z,123.75
2018-09-11T08:57:34.785Z,185.63
2018-09-11T08:58:34.851Z,174.38
2018-09-11T09:00:32.229Z,157.50
2018-09-11T09:01:30.704Z,151.88
2018-09-11T09:03:27.670Z,123.75
2018-09-11T09:04:26.682Z,151.88
2018-09-11T09:06:23.664Z,140.63
2018-09-11T09:07:23.639Z,146.25
2018-09-11T09:09:18.630Z,185.63
2018-09-11T09:10:18.587Z,185.63
2018-09-11T09:12:16.052Z,191.25
2018-09-11T09:13:14.547Z,163.13
2018-09-11T09:15:11.516Z,140.63
2018-09-11T09:16:11.009Z,140.63
2018-09-11T09:18:06.452Z,112.50
2018-09-11T09:19:06.476Z,106.88
2018-09-11T09:21:02.490Z,106.88
2018-09-11T09:22:02.401Z,112.50
2018-09-11T09:24:00.391Z,118.13
2018-09-11T09:25:00.881Z,123.75
2018-09-11T09:26:59.346Z,106.88
2018-09-11T09:27:58.499Z,101.25
2018-09-11T09:29:56.430Z,123.75
2018-09-11T09:30:56.954Z,135.00
2018-09-11T09:32:50.919Z,135.00
2018-09-11T09:33:50.897Z,129.38
2018-09-11T09:35:45.372Z,123.75
2018-09-11T09:36:46.374Z,118.13
2018-09-11T09:38:39.853Z,118.13
2018-09-11T09:39:39.869Z,123.75
2018-09-11T09:41:35.801Z,106.88
2018-09-11T09:42:36.300Z,106.88
2018-09-11T09:44:31.735Z,101.25
2018-09-11T09:45:32.261Z,106.88
2018-09-11T09:47:28.217Z,106.88
2018-09-11T09:48:27.730Z,106.88
2018-09-11T09:50:24.168Z,106.88
2018-09-11T09:51:23.664Z,106.88
2018-09-11T09:53:19.627Z,106.88
2018-09-11T09:54:19.617Z,106.88
2018-09-11T09:56:16.077Z,112.50
2018-09-11T09:57:16.084Z,112.50
2018-09-11T09:59:11.520Z,112.50
2018-09-11T10:00:11.531Z,118.13
2018-09-11T10:02:07.543Z,112.50
2018-09-11T10:03:07.485Z,118.13
2018-09-11T10:05:04.488Z,118.13
2018-09-11T10:06:03.472Z,118.13
2018-09-11T10:07:59.434Z,118.13
2018-09-11T10:08:59.412Z,118.13
2018-09-11T10:10:55.335Z,118.13
2018-09-11T10:11:55.346Z,118.13
2018-09-11T10:13:51.312Z,118.13
2018-09-11T10:14:51.304Z,118.13
2018-09-11T10:16:47.803Z,118.13
2018-09-11T10:17:47.269Z,118.13
2018-09-11T10:19:43.247Z,118.13
2018-09-11T10:20:43.233Z,112.50
2018-09-11T10:22:39.239Z,112.50
2018-09-11T10:23:39.188Z,112.50
2018-09-11T10:25:35.169Z,112.50
2018-09-11T10:28:59.471Z,106.88
2018-09-11T10:29:54.242Z,106.88
2018-09-11T10:31:50.261Z,112.50
2018-09-11T10:32:50.236Z,106.88
2018-09-11T10:34:45.789Z,106.88
2018-09-11T10:35:45.254Z,106.88
2018-09-11T10:37:41.284Z,106.88
2018-09-11T10:38:41.262Z,106.88
2018-09-11T10:40:37.338Z,106.88
2018-09-11T10:41:37.219Z,106.88
2018-09-11T10:43:33.219Z,112.50
2018-09-11T10:44:33.708Z,112.50
2018-09-11T10:46:31.121Z,112.50
2018-09-11T10:47:31.222Z,112.50
2018-09-11T10:49:29.592Z,112.50
2018-09-11T10:50:29.605Z,112.50
2018-09-11T10:52:25.054Z,112.50
2018-09-11T10:53:25.570Z,112.50
2018-09-11T10:55:24.012Z,112.50
2018-09-11T10:56:26.847Z,112.50
2018-09-11T10:58:23.164Z,112.50
2018-09-11T10:59:22.161Z,112.50
2018-09-11T11:01:20.088Z,106.88
2018-09-11T11:02:23.954Z,106.88
2018-09-11T11:04:18.252Z,106.88
2018-09-11T11:05:18.219Z,106.88
2018-09-11T11:07:19.577Z,101.25
2018-09-11T11:08:17.091Z,101.25
2018-09-11T11:10:13.645Z,106.88
2018-09-11T11:11:13.148Z,106.88
2018-09-11T11:13:10.700Z,106.88
2018-09-11T11:14:10.377Z,106.88
2018-09-11T11:16:06.270Z,106.88
2018-09-11T11:17:06.307Z,106.88
2018-09-11T11:19:02.490Z,106.88
2018-09-11T11:20:02.508Z,106.88
2018-09-11T11:21:58.504Z,106.88
2018-09-11T11:22:58.539Z,106.88
2018-09-11T11:24:59.918Z,106.88
2018-09-11T11:25:58.183Z,106.88
2018-09-11T11:27:53.613Z,106.88
2018-09-11T11:28:52.831Z,112.50
2018-09-11T11:30:50.653Z,106.88
2018-09-11T11:31:50.625Z,106.88
2018-09-11T11:33:46.621Z,112.50
2018-09-11T11:34:46.587Z,112.50
2018-09-11T11:36:43.787Z,112.50
2018-09-11T11:37:42.571Z,112.50
2018-09-11T11:39:39.585Z,112.50
2018-09-11T11:40:38.531Z,112.50
2018-09-11T11:42:35.076Z,112.50
2018-09-11T11:43:35.496Z,112.50
2018-09-11T11:45:32.681Z,112.50
2018-09-11T11:46:32.660Z,112.50
2018-09-11T11:48:28.649Z,112.50
2018-09-11T11:49:30.232Z,112.50
2018-09-11T11:51:24.630Z,112.50
2018-09-11T11:52:24.951Z,112.50
2018-09-11T11:54:46.603Z,112.50
2018-09-11T11:55:45.718Z,118.13
2018-09-11T11:57:41.674Z,112.50
2018-09-11T11:58:43.151Z,112.50
2018-09-11T12:00:39.632Z,112.50
2018-09-11T12:01:37.756Z,112.50
2018-09-11T12:03:38.141Z,112.50
2018-09-11T12:04:39.108Z,106.88
2018-09-11T12:06:34.177Z,106.88
2018-09-11T12:07:34.118Z,106.88
2018-09-11T12:09:30.147Z,101.25
2018-09-11T12:10:30.108Z,101.25
2018-09-11T12:12:26.076Z,101.25
2018-09-11T12:13:26.089Z,101.25
2018-09-11T12:15:22.091Z,101.25
2018-09-11T12:16:22.086Z,101.25
2018-09-11T12:18:22.521Z,95.63
2018-09-11T12:19:23.015Z,95.63
2018-09-11T12:21:20.966Z,95.63
2018-09-11T12:22:20.599Z,95.63
2018-09-11T12:24:19.058Z,95.63
2018-09-11T12:25:18.575Z,95.63
2018-09-11T12:27:16.561Z,95.63
2018-09-11T12:28:19.530Z,95.63
2018-09-11T12:30:12.512Z,95.63
2018-09-11T12:32:30.499Z,101.25
2018-09-11T12:33:30.468Z,101.25
2018-09-11T12:35:26.461Z,101.25
2018-09-11T12:36:26.457Z,101.25
2018-09-11T12:38:22.452Z,106.88
2018-09-11T12:39:20.941Z,101.25
2018-09-11T12:41:21.318Z,106.88
2018-09-11T12:42:22.984Z,106.88
2018-09-11T12:44:17.326Z,106.88
2018-09-11T12:45:17.375Z,106.88
2018-09-11T12:47:17.183Z,106.88
2018-09-11T12:48:15.711Z,106.88
2018-09-11T12:50:11.749Z,106.88
2018-09-11T12:51:11.787Z,106.88
2018-09-11T12:53:09.294Z,106.88
2018-09-11T12:54:09.203Z,106.88
2018-09-11T12:56:05.261Z,101.25
2018-09-11T12:57:05.673Z,101.25
2018-09-11T12:59:05.670Z,106.88
2018-09-11T13:00:05.659Z,101.25
2018-09-11T13:02:02.028Z,101.25
2018-09-11T13:03:02.669Z,101.25
2018-09-11T13:05:11.441Z,101.25
2018-09-11T13:07:34.074Z,95.63
2018-09-11T13:08:34.071Z,95.63
2018-09-11T13:10:32.025Z,95.63
2018-09-11T13:11:37.009Z,95.63
2018-09-11T13:13:31.428Z,90.00
2018-09-11T13:15:45.366Z,90.00
2018-09-11T13:16:45.416Z,90.00
2018-09-11T13:18:47.868Z,90.00
2018-09-11T13:19:44.891Z,84.38
2018-09-11T13:21:45.313Z,84.38
2018-09-11T13:22:44.751Z,84.38
2018-09-11T13:24:44.537Z,84.38
2018-09-11T13:25:46.936Z,84.38
2018-09-11T13:27:43.343Z,84.38
2018-09-11T13:28:42.728Z,84.38
2018-09-11T13:31:49.905Z,84.38
2018-09-11T13:32:49.902Z,84.38
2018-09-11T13:34:50.835Z,84.38
2018-09-11T13:35:51.749Z,84.38
2018-09-11T13:37:49.284Z,84.38
2018-09-11T13:38:49.251Z,84.38
2018-09-11T13:40:59.698Z,84.38
2018-09-11T13:41:59.175Z,84.38
2018-09-11T13:43:58.133Z,78.75
2018-09-11T13:47:41.608Z,78.75
2018-09-11T13:48:36.522Z,78.75
2018-09-11T13:50:33.030Z,78.75
2018-09-11T13:51:32.568Z,78.75
2018-09-11T13:53:30.497Z,78.75
2018-09-11T13:54:30.515Z,78.75
2018-09-11T13:56:29.074Z,78.75
2018-09-11T13:57:30.670Z,78.75
2018-09-11T13:59:27.219Z,78.75
2018-09-11T14:00:26.654Z,78.75
2018-09-11T14:02:28.613Z,78.75
2018-09-11T14:03:28.585Z,78.75
2018-09-11T14:05:25.137Z,78.75
2018-09-11T14:06:25.131Z,78.75
2018-09-11T14:08:22.110Z,78.75
2018-09-11T14:09:22.632Z,78.75
2018-09-11T14:11:18.024Z,78.75
2018-09-11T14:12:18.499Z,78.75
2018-09-11T14:14:15.488Z,78.75
2018-09-11T14:16:33.715Z,78.75
2018-09-11T14:17:33.177Z,78.75
2018-09-11T14:19:29.209Z,78.75
2018-09-11T14:20:30.167Z,78.75
2018-09-11T14:22:25.138Z,78.75
2018-09-11T14:23:25.121Z,78.75
2018-09-11T14:25:21.081Z,78.75
2018-09-11T14:26:22.509Z,78.75
2018-09-11T14:28:19.066Z,78.75
2018-09-11T14:29:19.568Z,78.75
2018-09-11T14:31:15.038Z,78.75
2018-09-11T14:32:15.518Z,78.75
2018-09-11T14:34:10.940Z,78.75
2018-09-11T14:35:11.098Z,78.75
2018-09-11T14:37:08.936Z,78.75
2018-09-11T14:38:08.800Z,78.75
2018-09-11T14:40:05.801Z,78.75
2018-09-11T14:41:04.733Z,78.75
2018-09-11T14:43:02.220Z,84.38
2018-09-11T14:44:02.125Z,78.75
2018-09-11T14:45:57.181Z,78.75
2018-09-11T14:46:56.693Z,78.75
2018-09-11T14:48:53.677Z,78.75
2018-09-11T14:49:53.592Z,78.75
2018-09-11T14:51:51.445Z,78.75
2018-09-11T14:52:53.008Z,84.38
2018-09-11T14:54:49.385Z,78.75
2018-09-11T14:55:49.393Z,84.38
2018-09-11T14:57:45.885Z,84.38
2018-09-11T14:58:45.400Z,84.38
2018-09-11T15:00:41.313Z,84.38
2018-09-11T15:01:41.374Z,84.38
2018-09-11T15:03:38.343Z,84.38
2018-09-11T15:05:58.327Z,84.38
2018-09-11T15:06:57.755Z,84.38
2018-09-11T15:08:58.394Z,84.38
2018-09-11T15:09:58.224Z,84.38
2018-09-11T15:11:54.244Z,84.38
2018-09-11T15:12:54.350Z,78.75
2018-09-11T15:14:51.223Z,78.75
2018-09-11T15:15:51.159Z,78.75
2018-09-11T15:17:46.207Z,78.75
2018-09-11T15:18:46.308Z,78.75
2018-09-11T15:20:42.293Z,78.75
2018-09-11T15:21:42.697Z,73.13
2018-09-11T15:23:39.219Z,73.13
2018-09-11T15:24:38.216Z,73.13
2018-09-11T15:26:37.389Z,73.13
2018-09-11T15:27:38.140Z,73.13
2018-09-11T15:29:35.337Z,73.13
2018-09-11T15:30:36.079Z,73.13
2018-09-11T15:32:31.244Z,67.50
2018-09-11T15:33:31.739Z,67.50
2018-09-11T15:35:29.683Z,67.50
2018-09-11T15:36:29.706Z,67.50
2018-09-11T15:38:28.262Z,67.50
2018-09-11T15:39:27.483Z,67.50
2018-09-11T15:41:23.829Z,67.50
2018-09-11T15:44:17.734Z,67.50
2018-09-11T15:45:19.832Z,67.50
2018-09-11T15:47:13.072Z,67.50
2018-09-11T15:48:13.079Z,67.50
2018-09-11T15:50:10.079Z,67.50
2018-09-11T15:51:10.122Z,67.50
2018-09-11T15:53:06.080Z,67.50
2018-09-11T15:54:06.066Z,67.50
2018-09-11T15:56:04.534Z,67.50
2018-09-11T15:57:04.531Z,67.50
2018-09-11T15:59:06.034Z,61.88
2018-09-11T16:00:06.083Z,61.88
2018-09-11T16:02:02.893Z,67.50
2018-09-11T16:03:02.946Z,61.88
2018-09-11T16:05:11.354Z,61.88
2018-09-11T16:06:01.064Z,61.88
2018-09-11T16:08:00.174Z,61.88
2018-09-11T16:08:59.990Z,61.88
2018-09-11T16:10:55.613Z,61.88
2018-09-11T16:11:56.289Z,67.50
2018-09-11T16:13:51.595Z,67.50
2018-09-11T16:14:51.611Z,67.50
2018-09-11T16:16:47.545Z,67.50
2018-09-11T16:17:47.604Z,67.50
2018-09-11T16:19:43.602Z,67.50
2018-09-11T16:20:43.618Z,67.50
2018-09-11T16:22:38.412Z,67.50
2018-09-11T16:23:38.318Z,61.88
2018-09-11T16:25:34.884Z,61.88
2018-09-11T16:26:35.408Z,61.88
2018-09-11T16:28:33.250Z,61.88
2018-09-11T16:29:32.454Z,61.88
2018-09-11T16:31:27.394Z,61.88
2018-09-11T16:32:26.837Z,61.88
2018-09-11T16:34:22.331Z,56.25
2018-09-11T16:35:21.841Z,56.25
2018-09-11T16:37:20.036Z,56.25
2018-09-11T16:38:20.810Z,56.25
2018-09-11T16:40:16.486Z,56.25
2018-09-11T16:41:15.960Z,56.25
2018-09-11T16:43:13.361Z,56.25
2018-09-11T16:44:11.965Z,56.25
2018-09-11T16:46:05.394Z,50.63
2018-09-11T16:47:05.406Z,50.63
2018-09-11T16:49:01.427Z,50.63
2018-09-11T16:50:01.454Z,50.63
2018-09-11T16:51:55.924Z,50.63
2018-09-11T16:52:55.917Z,50.63
2018-09-11T16:54:51.844Z,50.63
2018-09-11T16:55:52.394Z,45.00
2018-09-11T16:57:47.811Z,45.00
2018-09-11T16:58:47.820Z,45.00
2018-09-11T17:00:44.278Z,45.00
2018-09-11T17:01:43.750Z,45.00
2018-09-11T17:03:39.728Z,45.00
2018-09-11T17:04:39.725Z,39.38
2018-09-11T17:06:35.664Z,39.38
2018-09-11T17:07:35.683Z,39.38
2018-09-11T17:09:30.165Z,39.38
2018-09-11T17:10:30.639Z,39.38
2018-09-11T17:12:25.600Z,33.75
2018-09-11T17:13:25.550Z,33.75
2018-09-11T17:15:19.110Z,33.75
2018-09-11T17:16:19.082Z,33.75
2018-09-11T17:18:15.065Z,33.75
2018-09-11T17:19:15.073Z,28.13
2018-09-11T17:21:10.448Z,28.13
2018-09-11T17:22:10.523Z,28.13
2018-09-11T17:24:04.935Z,28.13
2018-09-11T17:25:04.020Z,28.13
2018-09-11T17:27:00.975Z,22.50
2018-09-11T17:28:00.477Z,22.50
2018-09-11T17:29:56.955Z,22.50
2018-09-11T17:30:55.932Z,16.88
2018-09-11T17:32:52.904Z,16.88
2018-09-11T17:33:51.891Z,16.88
2018-09-11T17:35:46.946Z,11.25
2018-09-11T17:36:46.425Z,11.25
2018-09-11T17:38:42.823Z,11.25
2018-09-11T17:39:42.333Z,11.25
2018-09-11T17:41:38.256Z,11.25
2018-09-11T17:42:38.286Z,11.25
2018-09-11T17:44:34.185Z,5.63
2018-09-11T17:45:34.190Z,5.63
2018-09-11T17:47:30.191Z,5.63
2018-09-11T17:48:30.167Z,5.63
2018-09-11T17:50:26.150Z,5.63
2018-09-11T17:51:26.133Z,5.63
2018-09-11T17:53:24.528Z,0.00
2018-09-11T17:54:22.095Z,0.00
2018-09-11T17:56:18.970Z,0.00
2018-09-11T17:57:18.538Z,0.00
2018-09-11T17:59:15.499Z,0.00
2018-09-11T18:00:13.995Z,0.00
2018-09-11T18:02:09.996Z,0.00
2018-09-11T18:03:09.954Z,0.00
2018-09-11T18:05:05.934Z,0.00
2018-09-11T18:06:05.943Z,0.00
2018-09-11T18:08:01.933Z,0.00
2018-09-11T18:09:02.401Z,0.00
2018-09-11T18:10:59.873Z,0.00
2018-09-11T18:11:58.791Z,0.00
2018-09-11T18:13:53.825Z,0.00
2018-09-11T18:14:53.833Z,0.00
2018-09-11T18:16:49.757Z,0.00
2018-09-11T18:17:49.784Z,0.00
2018-09-11T18:19:45.827Z,0.00
2018-09-11T18:20:45.753Z,0.00
2018-09-11T18:22:42.229Z,0.00
2018-09-11T18:23:41.692Z,0.00
2018-09-11T18:25:37.791Z,0.00
2018-09-11T18:26:37.670Z,0.00
2018-09-11T18:28:32.113Z,0.00
2018-09-11T18:29:32.122Z,0.00
2018-09-11T18:31:30.068Z,0.00
2018-09-11T18:32:30.087Z,0.00
2018-09-11T18:34:26.056Z,0.00
2018-09-11T18:35:26.069Z,0.00
2018-09-11T18:37:22.082Z,0.00
2018-09-11T18:38:21.996Z,0.00
2018-09-11T18:40:16.454Z,0.00
2018-09-11T18:41:16.475Z,0.00
2018-09-11T18:43:14.434Z,0.00
2018-09-11T18:44:12.489Z,0.00
2018-09-11T18:46:08.968Z,0.00
2018-09-11T18:47:08.464Z,0.00
2018-09-11T18:49:04.441Z,0.00
2018-09-11T18:50:04.395Z,0.00
2018-09-11T18:52:00.871Z,0.00
2018-09-11T18:53:00.863Z,0.00
2018-09-11T18:54:56.327Z,0.00
2018-09-11T18:55:56.323Z,0.00
2018-09-11T18:57:53.323Z,0.00
2018-09-11T18:58:53.282Z,0.00
2018-09-11T19:00:48.790Z,0.00
2018-09-11T19:01:48.266Z,0.00
2018-09-11T19:03:42.735Z,0.00
2018-09-11T19:04:42.734Z,0.00
2018-09-11T19:06:37.185Z,0.00
2018-09-11T19:07:37.188Z,0.00
2018-09-11T19:09:33.142Z,0.00
2018-09-11T19:10:33.142Z,0.00
2018-09-11T19:12:29.770Z,0.00
2018-09-11T19:13:29.105Z,0.00